Time;durP1;ratioP1;P1;durP2;ratioP2;P2;SDS_P1;SDS_P2;PMS_P1;PMS_P2;Temp;Humidity;BMP_temperature;BMP_pressure;BME280_temperature;BME280_humidity;BME280_pressure;Samples;Min_cycle;Max_cycle;Signal;HPM_P1;HPM_P2
2021/10/12 05:59:53;;;;;;;25.37;14.07;;;14.30;76.40;;;;;;2637680;31;20812;-74
2021/10/12 06:02:19;;;;;;;29.03;15.07;;;11.40;90.00;;;;;;2620709;30;20504;-75
2021/10/12 06:04:45;;;;;;;20.70;14.17;;;11.20;90.00;;;;;;2621332;38;20970;-74
2021/10/12 06:07:10;;;;;;;22.30;12.33;;;11.20;90.10;;;;;;2618018;30;20544;-74
2021/10/12 06:09:36;;;;;;;21.10;12.10;;;11.00;89.90;;;;;;2620713;30;20242;-75
2021/10/12 06:12:02;;;;;;;19.97;12.77;;;11.20;89.90;;;;;;2621009;30;20182;-74
2021/10/12 06:14:27;;;;;;;17.83;12.33;;;11.10;90.00;;;;;;2622248;30;20197;-74
2021/10/12 06:16:53;;;;;;;19.13;12.07;;;11.10;90.10;;;;;;2621576;30;20581;-74
2021/10/12 06:19:19;;;;;;;15.60;12.20;;;11.20;90.10;;;;;;2619635;38;20297;-75
2021/10/12 06:21:44;;;;;;;19.40;12.27;;;11.20;89.90;;;;;;2621404;30;20249;-75
2021/10/12 06:24:10;;;;;;;27.10;11.77;;;11.30;89.30;;;;;;2619142;30;21705;-75
2021/10/12 06:26:36;;;;;;;15.13;11.10;;;11.10;89.40;;;;;;2618429;30;20691;-75
2021/10/12 06:29:01;;;;;;;22.90;11.17;;;11.20;89.80;;;;;;2621044;30;20205;-76
2021/10/12 06:31:27;;;;;;;18.87;10.27;;;11.40;89.90;;;;;;2619664;30;20197;-75
2021/10/12 06:33:53;;;;;;;14.70;11.13;;;11.50;88.90;;;;;;2620634;38;20230;-75
2021/10/12 06:36:19;;;;;;;18.37;11.13;;;11.40;88.80;;;;;;2620601;30;20506;-74
2021/10/12 06:38:44;;;;;;;13.00;9.27;;;11.40;89.10;;;;;;2621309;30;20193;-74
2021/10/12 06:41:10;;;;;;;23.60;11.97;;;11.40;88.60;;;;;;2620051;31;20765;-74
2021/10/12 06:43:36;;;;;;;17.20;10.97;;;11.40;88.50;;;;;;2619988;30;20379;-75
2021/10/12 06:46:02;;;;;;;19.47;11.33;;;11.30;88.50;;;;;;2621469;30;20755;-75
2021/10/12 06:48:27;;;;;;;18.30;10.30;;;11.20;88.40;;;;;;2620705;30;20237;-74
2021/10/12 06:50:53;;;;;;;15.50;9.47;;;11.20;88.90;;;;;;2620858;30;20445;-76
2021/10/12 06:53:19;;;;;;;11.70;9.73;;;11.30;88.20;;;;;;2620744;38;21236;-76
2021/10/12 06:55:44;;;;;;;22.00;10.20;;;11.30;88.40;;;;;;2621502;30;20236;-75
2021/10/12 06:58:10;;;;;;;19.00;10.37;;;11.30;88.40;;;;;;2621352;38;20214;-76
2021/10/12 07:00:36;;;;;;;16.30;9.37;;;11.40;88.50;;;;;;2621445;30;20243;-75
2021/10/12 07:03:02;;;;;;;15.73;9.50;;;11.50;88.40;;;;;;2622209;30;20483;-75
2021/10/12 07:05:27;;;;;;;13.13;9.40;;;11.40;88.60;;;;;;2622977;30;20204;-74
2021/10/12 07:07:53;;;;;;;16.03;9.43;;;11.50;88.50;;;;;;2621949;38;20293;-74
2021/10/12 07:10:19;;;;;;;11.43;8.57;;;11.30;89.00;;;;;;2621000;38;20211;-76
2021/10/12 07:12:45;;;;;;;12.10;8.47;;;11.30;89.20;;;;;;2620284;30;20198;-74
2021/10/12 07:15:11;;;;;;;15.10;9.00;;;11.80;88.10;;;;;;2621048;30;20199;-74
2021/10/12 07:17:38;;;;;;;13.90;9.07;;;12.20;87.30;;;;;;2620458;30;20533;-74
2021/10/12 07:20:04;;;;;;;19.40;9.33;;;12.00;87.20;;;;;;2621107;30;20397;-75
2021/10/12 07:22:31;;;;;;;18.90;9.23;;;11.90;87.50;;;;;;2620363;30;20383;-75
2021/10/12 07:24:58;;;;;;;19.10;10.33;;;11.80;87.80;;;;;;2621795;30;20478;-76
2021/10/12 07:27:23;;;;;;;13.50;9.63;;;11.80;87.80;;;;;;2621668;38;20948;-74
2021/10/12 07:29:51;;;;;;;12.80;8.50;;;11.50;88.90;;;;;;2622442;30;20394;-74
2021/10/12 07:32:18;;;;;;;15.67;7.77;;;11.70;89.40;;;;;;2621579;30;20189;-75
2021/10/12 07:34:43;;;;;;;10.77;8.70;;;11.80;89.20;;;;;;2621596;30;20447;-74
2021/10/12 07:37:09;;;;;;;14.30;9.97;;;11.70;88.20;;;;;;2621981;30;20458;-74
2021/10/12 07:39:35;;;;;;;12.33;9.00;;;11.50;89.00;;;;;;2620443;30;20213;-74
2021/10/12 07:42:05;;;;;;;15.03;10.40;;;11.80;89.20;;;;;;2620408;38;20202;-76
2021/10/12 07:44:31;;;;;;;13.80;10.20;;;11.90;88.20;;;;;;2623677;30;20395;-73
2021/10/12 07:46:56;;;;;;;16.13;9.80;;;11.80;88.40;;;;;;2626482;38;20376;-75
2021/10/12 07:49:25;;;;;;;11.10;10.00;;;11.80;88.50;;;;;;2625498;38;20386;-76
2021/10/12 07:51:51;;;;;;;15.30;10.40;;;11.50;89.10;;;;;;2625876;30;20197;-74
2021/10/12 07:54:24;;;;;;;12.40;9.63;;;11.60;89.40;;;;;;2641803;30;20391;-74
2021/10/12 07:56:50;;;;;;;15.40;11.20;;;11.70;89.80;;;;;;2624507;38;20378;-74
2021/10/12 07:59:18;;;;;;;14.80;11.13;;;12.00;89.30;;;;;;2625443;38;20411;-74
2021/10/12 08:01:45;;;;;;;23.17;13.50;;;11.80;88.70;;;;;;2626980;30;20223;-76
2021/10/12 08:04:11;;;;;;;23.00;12.70;;;11.60;89.50;;;;;;2627774;30;20374;-74
2021/10/12 08:06:38;;;;;;;16.93;12.03;;;11.70;89.40;;;;;;2624461;38;21032;-74
2021/10/12 08:09:03;;;;;;;19.07;13.70;;;12.00;89.60;;;;;;2625337;30;20366;-75
2021/10/12 08:11:29;;;;;;;18.63;13.67;;;12.10;88.00;;;;;;2625420;30;21046;-75
2021/10/12 08:14:00;;;;;;;22.00;13.37;;;12.10;88.20;;;;;;2621714;38;20186;-76
2021/10/12 08:16:30;;;;;;;17.73;14.40;;;12.10;88.60;;;;;;2623029;30;20194;-76
2021/10/12 08:18:58;;;;;;;23.10;16.17;;;12.20;88.40;;;;;;2623712;30;20811;-76
2021/10/12 08:21:25;;;;;;;24.27;16.60;;;12.00;88.40;;;;;;2618479;30;20910;-76
2021/10/12 08:23:52;;;;;;;23.80;15.80;;;12.00;88.60;;;;;;2621607;30;20430;-75
2021/10/12 08:26:19;;;;;;;26.13;17.80;;;11.90;89.30;;;;;;2622811;30;20409;-75
2021/10/12 08:28:44;;;;;;;24.57;17.07;;;12.10;89.50;;;;;;2622761;30;20926;-72
2021/10/12 08:31:10;;;;;;;28.07;19.17;;;12.10;88.70;;;;;;2622341;30;20407;-73
2021/10/12 08:33:36;;;;;;;29.20;17.83;;;11.90;89.10;;;;;;2622356;30;20190;-76
2021/10/12 08:36:02;;;;;;;25.43;17.90;;;11.90;89.90;;;;;;2624614;30;20732;-75
2021/10/12 08:38:28;;;;;;;24.83;18.90;;;12.10;89.80;;;;;;2625247;30;20496;-74
2021/10/12 08:40:55;;;;;;;25.43;18.77;;;12.30;89.80;;;;;;2624611;30;21170;-75
2021/10/12 08:43:22;;;;;;;26.13;18.17;;;12.20;89.20;;;;;;2626042;30;20205;-76
2021/10/12 08:45:49;;;;;;;24.47;19.07;;;12.30;89.60;;;;;;2630078;30;20369;-73
2021/10/12 08:48:16;;;;;;;29.00;20.17;;;12.40;88.50;;;;;;2628410;30;20811;-74
2021/10/12 08:50:41;;;;;;;23.33;18.33;;;12.30;89.20;;;;;;2627440;30;20391;-74
2021/10/12 08:53:08;;;;;;;25.60;19.57;;;12.10;89.40;;;;;;2628626;30;20363;-74
2021/10/12 08:55:33;;;;;;;22.93;18.50;;;12.40;89.10;;;;;;2629109;30;20289;-73
2021/10/12 08:57:59;;;;;;;24.73;19.33;;;12.50;89.10;;;;;;2628418;30;20922;-74
2021/10/12 09:00:28;;;;;;;23.40;18.10;;;13.00;88.20;;;;;;2627707;30;20205;-75
2021/10/12 09:03:15;;;;;;;24.50;17.97;;;12.90;86.80;;;;;;2630521;30;20237;-74
2021/10/12 09:05:58;;;;;;;26.23;18.10;;;12.70;87.90;;;;;;2627793;30;20467;-75
2021/10/12 09:08:41;;;;;;;32.07;19.40;;;12.50;88.00;;;;;;2628970;30;20355;-74
2021/10/12 09:11:21;;;;;;;22.60;18.60;;;12.20;89.60;;;;;;2628298;38;20830;-74
2021/10/12 09:14:01;;;;;;;26.47;18.13;;;12.20;89.60;;;;;;2628434;30;20385;-74
2021/10/12 09:16:37;;;;;;;31.70;20.70;;;12.20;90.10;;;;;;2628290;30;20377;-75
2021/10/12 09:19:05;;;;;;;33.50;19.57;;;12.50;90.20;;;;;;2628035;30;20465;-75
2021/10/12 09:21:46;;;;;;;26.00;18.77;;;13.10;88.30;;;;;;2623762;30;20417;-75
2021/10/12 09:24:14;;;;;;;23.40;19.50;;;12.80;88.00;;;;;;2624064;30;20720;-75
2021/10/12 09:26:45;;;;;;;28.43;18.40;;;12.80;88.00;;;;;;2622671;30;20459;-76
2021/10/12 09:29:17;;;;;;;26.37;18.70;;;12.80;88.00;;;;;;2623920;38;20406;-74
2021/10/12 09:31:45;;;;;;;25.73;20.77;;;12.60;88.60;;;;;;2623213;38;20401;-75
2021/10/12 09:34:13;;;;;;;28.43;18.60;;;12.60;88.70;;;;;;2623062;38;20382;-74
2021/10/12 09:36:38;;;;;;;33.47;21.67;;;12.50;89.10;;;;;;2624931;30;20390;-75
2021/10/12 09:39:07;;;;;;;32.77;20.73;;;12.60;89.50;;;;;;2622155;38;20374;-75
2021/10/12 09:41:33;;;;;;;36.33;23.87;;;12.90;88.10;;;;;;2623803;38;20197;-75
2021/10/12 09:44:14;;;;;;;34.97;24.40;;;12.70;88.50;;;;;;2623392;30;20407;-75
2021/10/12 09:46:49;;;;;;;31.60;22.37;;;12.90;88.60;;;;;;2623183;38;20760;-76
2021/10/12 09:49:22;;;;;;;32.80;22.53;;;13.10;88.30;;;;;;2624177;30;20363;-75
2021/10/12 09:51:56;;;;;;;32.73;21.10;;;13.00;88.00;;;;;;2625239;38;20419;-74
2021/10/12 09:54:38;;;;;;;31.80;23.30;;;13.10;88.40;;;;;;2628487;38;20387;-76
2021/10/12 09:57:07;;;;;;;28.67;22.10;;;13.10;88.30;;;;;;2625507;38;20363;-75
2021/10/12 09:59:34;;;;;;;32.10;21.33;;;13.50;88.10;;;;;;2627455;30;20382;-75
2021/10/12 10:02:01;;;;;;;27.93;21.63;;;13.60;86.80;;;;;;2627967;30;20374;-76
2021/10/12 10:04:29;;;;;;;32.57;20.40;;;13.70;86.90;;;;;;2628514;30;20364;-75
2021/10/12 10:07:09;;;;;;;30.37;19.70;;;13.50;86.60;;;;;;2628197;30;20383;-74
2021/10/12 10:09:36;;;;;;;22.83;19.10;;;13.40;87.30;;;;;;2628039;38;20505;-75
2021/10/12 10:12:06;;;;;;;23.53;19.47;;;13.40;87.80;;;;;;2629574;30;20394;-75
2021/10/12 10:14:33;;;;;;;27.03;19.93;;;13.40;88.40;;;;;;2631184;30;20341;-74
2021/10/12 10:17:00;;;;;;;23.83;17.90;;;13.50;88.00;;;;;;2628461;30;20498;-76
2021/10/12 10:19:34;;;;;;;21.60;18.37;;;13.90;86.60;;;;;;2627808;30;20390;-75
2021/10/12 10:22:00;;;;;;;28.87;21.33;;;13.80;86.50;;;;;;2626610;30;20415;-75
2021/10/12 10:24:38;;;;;;;27.90;20.03;;;13.30;87.30;;;;;;2621459;38;21872;-73
2021/10/12 10:27:05;;;;;;;21.67;18.93;;;13.80;87.10;;;;;;2624802;30;20383;-75
2021/10/12 10:29:36;;;;;;;25.67;20.57;;;14.00;86.20;;;;;;2624045;38;21229;-75
2021/10/12 10:32:14;;;;;;;26.03;19.53;;;14.30;86.50;;;;;;2622667;30;20379;-74
2021/10/12 10:34:57;;;;;;;29.53;19.50;;;14.10;84.80;;;;;;2623987;38;20809;-74
2021/10/12 10:37:27;;;;;;;23.90;19.60;;;13.60;86.70;;;;;;2625226;30;20387;-74
2021/10/12 10:40:27;;;;;;;23.20;17.83;;;13.50;87.30;;;;;;2624952;30;20948;-72
2021/10/12 10:42:57;;;;;;;22.57;18.77;;;13.80;86.70;;;;;;2622952;38;20383;-75
2021/10/12 10:45:46;;;;;;;25.13;19.47;;;14.10;85.80;;;;;;2623692;30;20418;-73
2021/10/12 10:48:18;;;;;;;19.60;16.67;;;14.20;84.70;;;;;;2624071;30;20406;-74
2021/10/12 10:50:45;;;;;;;16.50;14.20;;;14.40;84.70;;;;;;2623183;30;20394;-74
2021/10/12 10:53:12;;;;;;;18.20;16.30;;;13.70;85.60;;;;;;2625119;30;20498;-72
2021/10/12 10:55:42;;;;;;;16.83;14.67;;;13.70;87.80;;;;;;2627859;30;20389;-74
2021/10/12 10:58:16;;;;;;;19.00;15.60;;;13.80;86.10;;;;;;2628435;30;20371;-72
2021/10/12 11:00:48;;;;;;;22.10;16.13;;;14.30;86.00;;;;;;2627420;30;20466;-75
2021/10/12 11:03:32;;;;;;;15.93;14.23;;;14.40;83.90;;;;;;2627311;30;20366;-73
2021/10/12 11:06:04;;;;;;;16.37;13.83;;;14.40;83.40;;;;;;2627216;38;20350;-74
2021/10/12 11:08:32;;;;;;;21.83;16.10;;;14.10;84.80;;;;;;2627636;38;20359;-74
2021/10/12 11:11:09;;;;;;;18.67;14.70;;;14.10;85.40;;;;;;2629011;30;20811;-73
2021/10/12 11:13:39;;;;;;;21.23;13.67;;;14.00;85.20;;;;;;2628531;30;20363;-75
2021/10/12 11:16:17;;;;;;;19.47;16.20;;;13.90;85.70;;;;;;2628819;30;20858;-73
2021/10/12 11:18:44;;;;;;;20.13;15.90;;;14.00;86.00;;;;;;2628508;30;20335;-74
2021/10/12 11:21:13;;;;;;;20.57;17.50;;;14.20;85.50;;;;;;2624959;30;20363;-75
2021/10/12 11:23:42;;;;;;;18.40;15.27;;;14.20;84.80;;;;;;2623033;30;20437;-74
2021/10/12 11:26:19;;;;;;;19.40;17.20;;;13.90;85.40;;;;;;2623362;30;20355;-75
2021/10/12 11:28:53;;;;;;;21.67;18.00;;;14.00;85.40;;;;;;2623568;30;20412;-73
2021/10/12 11:31:26;;;;;;;25.27;18.87;;;13.80;85.40;;;;;;2625154;30;20363;-74
2021/10/12 11:34:01;;;;;;;24.57;20.10;;;13.80;85.80;;;;;;2623577;38;20513;-73
2021/10/12 11:36:32;;;;;;;21.50;18.67;;;13.70;86.50;;;;;;2623301;38;20537;-75
2021/10/12 11:39:08;;;;;;;28.17;20.47;;;13.90;86.10;;;;;;2623184;30;20394;-73
2021/10/12 11:41:44;;;;;;;26.77;18.93;;;13.70;86.10;;;;;;2624124;30;20382;-75
2021/10/12 11:44:36;;;;;;;24.03;18.97;;;14.00;86.10;;;;;;2623944;30;20379;-74
2021/10/12 11:47:02;;;;;;;26.73;19.73;;;14.20;85.00;;;;;;2624218;30;20893;-74
2021/10/12 11:49:34;;;;;;;28.80;21.20;;;14.10;85.70;;;;;;2624025;30;20919;-74
2021/10/12 11:52:05;;;;;;;24.90;19.10;;;14.10;86.10;;;;;;2623967;38;20347;-75
2021/10/12 11:54:31;;;;;;;26.70;17.30;;;14.30;85.00;;;;;;2628072;30;20394;-74
2021/10/12 11:56:57;;;;;;;22.90;16.20;;;14.50;84.10;;;;;;2628424;38;20374;-73
2021/10/12 11:59:30;;;;;;;20.47;16.30;;;14.80;83.40;;;;;;2629251;30;20309;-75
2021/10/12 12:01:56;;;;;;;16.27;13.00;;;15.50;80.60;;;;;;2627277;30;20463;-75
2021/10/12 12:04:34;;;;;;;21.50;12.30;;;15.50;80.60;;;;;;2627472;38;20367;-77
2021/10/12 12:07:10;;;;;;;13.03;11.30;;;15.50;80.50;;;;;;2628432;30;20803;-76
2021/10/12 12:09:41;;;;;;;12.63;11.10;;;15.20;82.00;;;;;;2625859;38;20417;-76
2021/10/12 12:12:07;;;;;;;11.90;10.70;;;15.00;81.50;;;;;;2623448;38;21756;-75
2021/10/12 12:14:34;;;;;;;14.03;10.87;;;14.70;83.60;;;;;;2623666;30;20501;-75
2021/10/12 12:17:10;;;;;;;13.43;11.37;;;14.30;84.60;;;;;;2623896;30;20405;-75
2021/10/12 12:19:47;;;;;;;11.27;10.17;;;14.50;84.50;;;;;;2625954;30;20503;-74
2021/10/12 12:22:24;;;;;;;9.83;8.83;;;14.10;84.20;;;;;;2627721;30;20355;-75
2021/10/12 12:24:56;;;;;;;11.10;9.53;;;14.20;85.20;;;;;;2629104;30;20399;-74
2021/10/12 12:27:22;;;;;;;11.33;9.00;;;14.10;85.40;;;;;;2627045;30;20355;-75
2021/10/12 12:30:07;;;;;;;10.23;9.33;;;14.40;85.00;;;;;;2628708;30;20369;-72
2021/10/12 12:32:34;;;;;;;13.37;9.80;;;15.00;83.20;;;;;;2627228;30;20358;-75
2021/10/12 12:35:03;;;;;;;10.50;9.03;;;14.60;83.60;;;;;;2628741;30;20888;-73
2021/10/12 12:37:30;;;;;;;12.10;9.27;;;15.10;83.30;;;;;;2628060;38;20379;-73
2021/10/12 12:39:55;;;;;;;11.10;5.90;;;15.00;83.20;;;;;;2626637;30;20924;-72
2021/10/12 12:42:32;;;;;;;7.17;5.23;;;14.40;83.50;;;;;;2629321;30;20374;-70
2021/10/12 12:45:10;;;;;;;4.20;3.70;;;14.00;85.00;;;;;;2626893;38;20186;-70
2021/10/12 12:47:36;;;;;;;8.40;4.03;;;14.10;83.60;;;;;;2628842;30;20355;-71
2021/10/12 12:50:10;;;;;;;4.20;3.80;;;14.20;83.00;;;;;;2627903;30;20377;-71
2021/10/12 12:52:35;;;;;;;4.33;3.47;;;14.50;83.10;;;;;;2629225;30;20521;-71
2021/10/12 12:55:01;;;;;;;2.93;2.60;;;14.60;82.10;;;;;;2625165;30;20763;-73
2021/10/12 12:57:27;;;;;;;3.37;2.90;;;13.70;84.50;;;;;;2627352;38;20189;-72
2021/10/12 13:00:08;;;;;;;4.80;3.03;;;13.70;84.50;;;;;;2629871;30;20194;-73
2021/10/12 13:02:34;;;;;;;3.30;2.57;;;13.80;84.80;;;;;;2627605;30;20217;-74
2021/10/12 13:04:59;;;;;;;3.07;1.93;;;14.30;83.80;;;;;;2627923;30;20450;-73
2021/10/12 13:07:25;;;;;;;2.07;1.90;;;14.60;82.10;;;;;;2627808;30;21217;-72
2021/10/12 13:09:52;;;;;;;2.03;1.43;;;14.90;80.80;;;;;;2622559;30;20712;-71
2021/10/12 13:12:22;;;;;;;1.97;1.77;;;15.30;79.20;;;;;;2626791;38;20629;-73
2021/10/12 13:14:49;;;;;;;5.13;1.90;;;15.30;78.10;;;;;;2626429;38;20390;-71
2021/10/12 13:17:20;;;;;;;4.07;2.50;;;14.70;79.60;;;;;;2626700;30;20367;-71
2021/10/12 13:19:48;;;;;;;4.23;2.00;;;14.40;81.30;;;;;;2629392;30;20904;-72
2021/10/12 13:22:15;;;;;;;3.13;2.83;;;14.70;81.60;;;;;;2628031;30;20953;-72
2021/10/12 13:24:42;;;;;;;4.40;2.20;;;15.10;80.30;;;;;;2628224;30;20920;-72
2021/10/12 13:27:08;;;;;;;3.90;2.70;;;15.40;79.80;;;;;;2627144;30;20368;-72
2021/10/12 13:29:34;;;;;;;3.20;2.70;;;16.00;78.60;;;;;;2628184;30;20367;-71
2021/10/12 13:32:00;;;;;;;3.23;2.00;;;16.50;77.10;;;;;;2629423;30;20359;-73
2021/10/12 13:34:29;;;;;;;3.23;2.93;;;16.90;75.10;;;;;;2627002;38;20728;-73
2021/10/12 13:36:55;;;;;;;3.40;2.30;;;17.40;74.30;;;;;;2628026;30;20391;-74
2021/10/12 13:39:21;;;;;;;1.80;1.60;;;17.80;72.60;;;;;;2625721;30;20375;-72
2021/10/12 13:41:50;;;;;;;3.67;1.80;;;18.50;70.30;;;;;;2628995;30;21023;-74
2021/10/12 13:44:23;;;;;;;2.87;1.20;;;19.40;67.70;;;;;;2627955;38;20471;-73
2021/10/12 13:46:49;;;;;;;3.80;1.60;;;19.90;63.40;;;;;;2626829;38;20355;-73
2021/10/12 13:49:15;;;;;;;3.43;1.23;;;19.80;62.80;;;;;;2628093;30;20347;-73
2021/10/12 13:51:41;;;;;;;2.90;1.60;;;20.60;60.80;;;;;;2626222;30;20367;-74
2021/10/12 13:54:07;;;;;;;3.53;1.50;;;21.70;60.00;;;;;;2627004;30;20189;-73
2021/10/12 13:56:33;;;;;;;4.37;1.90;;;22.60;56.90;;;;;;2625688;30;20385;-73
2021/10/12 13:58:58;;;;;;;1.47;1.30;;;23.50;54.50;;;;;;2624169;30;20390;-76
2021/10/12 14:01:24;;;;;;;2.87;1.47;;;23.40;54.10;;;;;;2623877;30;20811;-73
2021/10/12 14:03:52;;;;;;;3.47;1.43;;;23.60;53.70;;;;;;2624868;30;20810;-74
2021/10/12 14:06:18;;;;;;;1.47;1.37;;;23.30;54.00;;;;;;2627735;30;20179;-74
2021/10/12 14:08:44;;;;;;;2.83;1.20;;;23.60;53.40;;;;;;2626798;30;20881;-75
2021/10/12 14:11:10;;;;;;;6.93;2.27;;;22.70;52.90;;;;;;2627070;30;20387;-73
2021/10/12 14:13:38;;;;;;;3.43;1.40;;;21.20;55.50;;;;;;2630110;30;20366;-75
2021/10/12 14:16:04;;;;;;;2.23;1.27;;;20.20;56.70;;;;;;2628264;30;20188;-73
2021/10/12 14:18:30;;;;;;;1.57;1.40;;;21.10;57.30;;;;;;2627679;30;20379;-75
2021/10/12 14:20:56;;;;;;;1.47;1.37;;;21.70;55.40;;;;;;2627590;30;20376;-74
2021/10/12 14:23:24;;;;;;;3.03;1.30;;;21.80;55.50;;;;;;2626631;30;20198;-74
2021/10/12 14:25:56;;;;;;;3.53;1.53;;;21.90;55.20;;;;;;2627229;30;20367;-76
2021/10/12 14:28:21;;;;;;;3.23;1.30;;;22.40;55.30;;;;;;2627228;30;20942;-74
2021/10/12 14:30:47;;;;;;;1.90;1.40;;;21.80;55.80;;;;;;2627819;30;20386;-74
2021/10/12 14:33:19;;;;;;;1.83;1.07;;;21.50;55.10;;;;;;2628594;30;20182;-74
2021/10/12 14:35:45;;;;;;;2.77;1.73;;;20.50;57.00;;;;;;2627772;38;20395;-74
2021/10/12 14:38:11;;;;;;;2.50;2.00;;;18.90;62.00;;;;;;2626695;30;20374;-73
2021/10/12 14:40:36;;;;;;;2.10;1.50;;;17.10;67.00;;;;;;2627370;38;20344;-75
2021/10/12 14:43:02;;;;;;;2.27;1.20;;;15.10;72.30;;;;;;2627043;30;20190;-74
2021/10/12 14:45:28;;;;;;;4.07;1.67;;;14.20;75.20;;;;;;2627319;30;20694;-73
2021/10/12 14:47:54;;;;;;;4.00;1.80;;;13.70;77.40;;;;;;2627275;30;20656;-73
2021/10/12 14:50:20;;;;;;;2.17;1.43;;;13.50;77.30;;;;;;2626731;30;20205;-73
2021/10/12 14:52:47;;;;;;;5.00;1.53;;;13.80;77.70;;;;;;2645681;30;20186;-73
2021/10/12 14:55:15;;;;;;;4.20;1.90;;;13.70;78.00;;;;;;2627831;30;20367;-74
2021/10/12 14:57:42;;;;;;;3.33;1.60;;;13.80;77.20;;;;;;2624446;30;20375;-74
2021/10/12 15:00:10;;;;;;;9.50;1.43;;;13.80;75.80;;;;;;2626133;30;20379;-74
2021/10/12 15:02:36;;;;;;;7.77;2.07;;;13.70;75.80;;;;;;2625893;38;20359;-74
2021/10/12 15:05:04;;;;;;;7.03;2.23;;;13.80;76.40;;;;;;2627643;30;20374;-73
2021/10/12 15:07:30;;;;;;;5.87;1.60;;;13.80;76.80;;;;;;2626220;30;20347;-75
2021/10/12 15:09:57;;;;;;;3.90;2.63;;;13.80;76.40;;;;;;2627691;30;20388;-75
2021/10/12 15:12:24;;;;;;;3.27;1.93;;;14.00;76.00;;;;;;2626964;30;20419;-73
2021/10/12 15:14:49;;;;;;;5.73;2.23;;;14.50;75.40;;;;;;2627090;38;20479;-72
2021/10/12 15:17:15;;;;;;;4.10;2.10;;;15.60;74.00;;;;;;2625433;30;20398;-75
2021/10/12 15:19:41;;;;;;;3.80;1.90;;;16.20;71.60;;;;;;2625277;38;20688;-73
2021/10/12 15:22:07;;;;;;;4.90;3.33;;;16.70;69.20;;;;;;2626768;30;20403;-73
2021/10/12 15:24:34;;;;;;;3.10;2.13;;;16.90;67.50;;;;;;2628850;30;20367;-75
2021/10/12 15:27:00;;;;;;;2.27;1.80;;;17.30;66.60;;;;;;2626954;38;20296;-75
2021/10/12 15:29:33;;;;;;;2.97;1.70;;;17.60;65.20;;;;;;2626887;30;20990;-74
2021/10/12 15:31:59;;;;;;;4.10;1.50;;;17.50;64.60;;;;;;2624941;38;20191;-75
2021/10/12 15:34:25;;;;;;;6.30;1.77;;;17.20;66.00;;;;;;2622620;38;20386;-74
2021/10/12 15:36:51;;;;;;;3.23;1.43;;;17.00;65.10;;;;;;2627382;30;20803;-75
2021/10/12 15:39:28;;;;;;;3.10;1.73;;;17.30;65.60;;;;;;2627651;30;20277;-74
2021/10/12 15:41:56;;;;;;;12.87;2.40;;;17.70;64.00;;;;;;2626401;38;20289;-74
2021/10/12 15:44:24;;;;;;;4.80;2.43;;;17.50;63.70;;;;;;2624016;30;20409;-74
2021/10/12 15:46:51;;;;;;;3.60;1.83;;;17.10;63.30;;;;;;2626972;30;20379;-74
2021/10/12 15:49:21;;;;;;;20.80;3.10;;;16.60;65.60;;;;;;2627272;30;20414;-74
2021/10/12 15:51:51;;;;;;;6.47;2.67;;;16.20;67.10;;;;;;2627060;30;20391;-75
2021/10/12 15:54:18;;;;;;;3.80;2.03;;;16.20;67.00;;;;;;2627604;30;20379;-74
2021/10/12 15:56:44;;;;;;;4.47;2.30;;;16.10;66.90;;;;;;2624880;30;20382;-74
2021/10/12 15:59:11;;;;;;;5.30;2.10;;;16.40;66.00;;;;;;2625593;38;20719;-74
2021/10/12 16:01:37;;;;;;;5.30;2.17;;;16.40;66.00;;;;;;2626002;30;20226;-73
2021/10/12 16:04:10;;;;;;;4.20;2.00;;;16.40;65.30;;;;;;2624516;30;20506;-73
2021/10/12 16:06:36;;;;;;;7.83;2.63;;;16.20;66.00;;;;;;2623446;30;20400;-73
2021/10/12 16:09:01;;;;;;;6.93;2.67;;;16.10;66.10;;;;;;2620567;30;20509;-74
2021/10/12 16:11:27;;;;;;;4.00;2.00;;;16.40;66.50;;;;;;2619192;30;20407;-72
2021/10/12 16:13:53;;;;;;;8.23;2.00;;;16.50;66.10;;;;;;2620750;30;20705;-74
2021/10/12 16:21:47;;;;;;;2.57;2.20;;;15.60;67.40;;;;;;2619526;38;20189;-74
2021/10/12 16:24:14;;;;;;;9.53;2.50;;;15.10;68.10;;;;;;2621322;31;20367;-74
2021/10/12 16:26:42;;;;;;;4.10;2.20;;;14.40;70.10;;;;;;2621457;30;21163;-75
2021/10/12 16:29:10;;;;;;;4.43;2.80;;;13.70;71.50;;;;;;2622548;30;20413;-75
2021/10/12 16:31:39;;;;;;;4.93;2.70;;;13.40;72.60;;;;;;2620770;30;20414;-73
2021/10/12 16:34:22;;;;;;;3.57;1.77;;;13.30;72.40;;;;;;2620867;30;20363;-73
2021/10/12 16:36:55;;;;;;;8.70;2.70;;;13.30;72.60;;;;;;2622396;30;20354;-73
2021/10/12 16:39:25;;;;;;;5.10;1.90;;;13.10;72.20;;;;;;2621506;30;20962;-75
2021/10/12 16:41:51;;;;;;;6.87;2.53;;;13.00;72.70;;;;;;2621234;30;20376;-75
2021/10/12 16:44:18;;;;;;;4.60;2.70;;;12.90;73.20;;;;;;2621701;30;20379;-73
2021/10/12 16:46:46;;;;;;;4.83;2.30;;;12.70;73.70;;;;;;2621756;30;20386;-74
2021/10/12 16:49:12;;;;;;;4.77;2.20;;;12.50;73.50;;;;;;2622582;38;20401;-74
2021/10/12 16:51:39;;;;;;;7.40;2.63;;;12.40;74.50;;;;;;2622162;30;20371;-77
2021/10/12 16:54:04;;;;;;;4.70;2.53;;;12.40;73.90;;;;;;2621381;30;20397;-77
2021/10/12 16:56:31;;;;;;;7.83;2.47;;;12.40;73.90;;;;;;2621461;30;21424;-77
2021/10/12 16:59:15;;;;;;;3.97;2.03;;;12.30;74.40;;;;;;2621659;30;21056;-75
2021/10/12 17:01:53;;;;;;;10.70;2.40;;;12.20;74.80;;;;;;2621954;38;20403;-75
2021/10/12 17:04:20;;;;;;;4.43;2.43;;;12.40;74.70;;;;;;2622396;38;20395;-75
2021/10/12 17:06:46;;;;;;;7.10;2.47;;;12.50;74.20;;;;;;2622480;30;20490;-76
2021/10/12 17:09:15;;;;;;;4.17;2.20;;;12.40;74.60;;;;;;2623301;30;20455;-75
2021/10/12 17:11:50;;;;;;;5.33;2.03;;;12.30;74.70;;;;;;2621593;30;20914;-75
2021/10/12 17:14:18;;;;;;;3.80;2.43;;;12.30;74.80;;;;;;2620386;38;20539;-75
2021/10/12 17:16:44;;;;;;;4.50;2.57;;;12.20;75.10;;;;;;2624202;30;21444;-75
2021/10/12 17:19:11;;;;;;;4.77;2.60;;;12.10;74.90;;;;;;2621804;31;20368;-75
2021/10/12 17:21:38;;;;;;;6.67;2.97;;;12.00;75.40;;;;;;2621705;38;20399;-75
2021/10/12 17:24:05;;;;;;;3.83;2.60;;;11.90;75.90;;;;;;2621728;30;20418;-75
2021/10/12 17:26:33;;;;;;;3.43;1.73;;;11.90;75.60;;;;;;2622764;30;20387;-75
2021/10/12 17:29:01;;;;;;;4.30;2.47;;;11.70;76.00;;;;;;2622075;30;20395;-75
2021/10/12 17:31:27;;;;;;;4.07;1.90;;;11.60;76.20;;;;;;2625430;30;21470;-75
2021/10/12 17:33:53;;;;;;;6.40;2.97;;;11.40;76.20;;;;;;2621423;30;20410;-76
2021/10/12 17:36:22;;;;;;;2.60;2.10;;;11.20;77.20;;;;;;2623384;30;20971;-73
2021/10/12 17:38:49;;;;;;;5.43;2.80;;;11.20;77.10;;;;;;2621270;38;20363;-76
2021/10/12 17:41:15;;;;;;;8.30;2.00;;;11.30;77.10;;;;;;2624905;30;20864;-75
2021/10/12 17:43:42;;;;;;;4.83;2.17;;;11.20;77.00;;;;;;2621911;30;20396;-75
2021/10/12 17:46:09;;;;;;;2.43;1.80;;;11.10;76.80;;;;;;2621688;38;20774;-77
2021/10/12 17:48:35;;;;;;;6.73;3.00;;;11.20;76.60;;;;;;2622539;30;21673;-76
2021/10/12 17:51:03;;;;;;;4.67;2.70;;;11.20;76.90;;;;;;2620484;38;20411;-76
2021/10/12 17:53:47;;;;;;;7.87;3.30;;;11.20;76.70;;;;;;2621526;30;20188;-76
2021/10/12 17:56:13;;;;;;;5.00;2.90;;;11.00;77.00;;;;;;2623401;30;20350;-75
2021/10/12 17:58:40;;;;;;;6.73;3.10;;;11.10;77.10;;;;;;2621722;30;20509;-75
2021/10/12 18:01:06;;;;;;;4.37;2.50;;;11.00;77.10;;;;;;2623151;38;20350;-75
2021/10/12 18:03:32;;;;;;;3.87;2.70;;;11.00;77.20;;;;;;2621633;30;20994;-76
2021/10/12 18:06:12;;;;;;;8.13;2.60;;;10.90;77.20;;;;;;2621002;38;20198;-75
2021/10/12 18:08:40;;;;;;;4.23;2.53;;;11.00;77.10;;;;;;2621702;38;20709;-77
2021/10/12 18:11:10;;;;;;;5.80;2.80;;;10.90;77.10;;;;;;2624496;30;20887;-76
2021/10/12 18:13:38;;;;;;;7.43;2.80;;;10.90;76.90;;;;;;2621882;38;20509;-77
2021/10/12 18:16:04;;;;;;;6.33;3.10;;;10.90;77.00;;;;;;2621548;30;20873;-76
2021/10/12 18:18:31;;;;;;;7.43;3.40;;;10.80;77.10;;;;;;2620808;38;20369;-75
2021/10/12 18:20:57;;;;;;;6.63;3.37;;;10.90;77.10;;;;;;2621861;30;20402;-76
2021/10/12 18:23:23;;;;;;;6.03;2.93;;;10.80;77.20;;;;;;2621193;30;20379;-75
2021/10/12 18:25:49;;;;;;;4.50;3.17;;;10.70;77.40;;;;;;2621503;30;20910;-77
2021/10/12 18:28:15;;;;;;;7.40;3.60;;;10.70;77.50;;;;;;2623244;30;20370;-75
2021/10/12 18:30:41;;;;;;;7.03;3.10;;;10.70;77.60;;;;;;2621117;30;20423;-76
2021/10/12 18:33:08;;;;;;;5.90;4.37;;;10.70;77.60;;;;;;2621958;30;20221;-75
